Cartersburg, Indiana
Current Conditions -  °F | °C
As of 11:54 PM on Monday 20 Oct 2014 (Local Time) from KIND Reporting Station
Overcast Overcast  
Wind Chill: 54°   Ceiling: 6500
Heat Index: 54°   Visibility: 10mi
Dew Point: 46°   Wind: 12mph
Humidity: 75%   Direction: 360°N
Pressure: 29.96"   Gusts: NA
Location:  39.7°N, 86.46°W
Report Text: KIND 210354Z 36010KT 10SM OVC065 12/08 A2996 RMK AO2 SLP145 T01220078
Loading
Personal Weather Stations






























Interactive Weather Map
Tropical Storm Tracking
New forecast layout! Learn more

10-Day Weather Forecast

Advertisements
Track Severe Weather on mobile